createdAt,value
2022-10-17T00:01:27.911Z,16.40
2022-10-17T00:07:41.916Z,14.90
2022-10-17T00:10:48.944Z,13.80
2022-10-17T00:14:01.918Z,16.50
2022-10-17T00:17:11.871Z,15.30
2022-10-17T00:20:18.878Z,15.90
2022-10-17T00:23:25.887Z,14.40
2022-10-17T00:26:32.889Z,16.20
2022-10-17T00:29:42.884Z,15.30
2022-10-17T00:32:49.935Z,13.80
2022-10-17T00:35:56.904Z,14.40
2022-10-17T00:39:03.940Z,14.30
2022-10-17T00:42:13.945Z,13.30
2022-10-17T00:45:20.939Z,14.40
2022-10-17T00:48:28.022Z,15.40
2022-10-17T00:51:40.995Z,14.00
2022-10-17T00:54:50.922Z,13.80
2022-10-17T00:57:57.979Z,13.20
2022-10-17T01:01:05.050Z,13.30
2022-10-17T01:04:15.052Z,13.70
2022-10-17T01:07:21.993Z,14.90
2022-10-17T01:10:29.003Z,15.00
2022-10-17T01:13:36.073Z,13.90
2022-10-17T01:16:46.013Z,15.10
2022-10-17T01:19:53.058Z,13.00
2022-10-17T01:23:03.195Z,15.00
2022-10-17T01:26:10.055Z,14.20
2022-10-17T01:29:17.102Z,13.50
2022-10-17T01:32:24.049Z,14.80
2022-10-17T01:35:31.113Z,14.60
2022-10-17T01:38:38.070Z,13.40
2022-10-17T01:41:48.077Z,13.50
2022-10-17T01:44:55.106Z,14.60
2022-10-17T01:48:02.084Z,13.10
2022-10-17T01:51:09.149Z,12.70
2022-10-17T01:54:16.107Z,13.60
2022-10-17T01:57:23.140Z,13.80
2022-10-17T02:00:34.121Z,13.40
2022-10-17T02:03:41.151Z,12.30
2022-10-17T02:06:48.212Z,14.50
2022-10-17T02:09:55.175Z,11.80
2022-10-17T02:13:05.165Z,13.50
2022-10-17T02:16:12.144Z,13.10
2022-10-17T02:19:22.208Z,13.60
2022-10-17T02:22:29.222Z,16.90
2022-10-17T02:25:36.219Z,14.40
2022-10-17T02:28:43.229Z,12.70
2022-10-17T02:31:50.191Z,13.20
2022-10-17T02:34:57.239Z,14.20
2022-10-17T02:38:04.234Z,13.80
2022-10-17T02:41:11.231Z,13.20
2022-10-17T02:44:21.198Z,12.00
2022-10-17T02:47:34.281Z,11.10
2022-10-17T02:50:58.317Z,13.40
2022-10-17T02:54:05.273Z,15.10
2022-10-17T02:57:16.293Z,12.90
2022-10-17T03:00:26.326Z,12.40
2022-10-17T03:03:36.309Z,15.80
2022-10-17T03:06:43.304Z,13.20
2022-10-17T03:09:58.300Z,14.40
2022-10-17T03:13:05.318Z,11.10
2022-10-17T03:16:12.354Z,12.10
2022-10-17T03:19:19.390Z,14.20
2022-10-17T03:22:26.625Z,13.30
2022-10-17T03:25:38.362Z,13.20
2022-10-17T03:28:50.725Z,14.30
2022-10-17T03:32:01.353Z,12.70
2022-10-17T03:35:10.195Z,13.30
2022-10-17T03:38:21.298Z,11.90
2022-10-17T03:41:28.409Z,13.10
2022-10-17T03:44:38.348Z,14.60
2022-10-17T03:47:45.426Z,11.90
2022-10-17T03:50:52.392Z,15.80
2022-10-17T03:54:02.425Z,17.60
2022-10-17T03:57:09.421Z,11.90
2022-10-17T04:00:16.414Z,14.70
2022-10-17T04:03:23.481Z,14.80
2022-10-17T04:06:33.497Z,12.30
2022-10-17T04:09:40.416Z,12.70
2022-10-17T04:12:47.603Z,12.40
2022-10-17T04:15:57.469Z,14.20
2022-10-17T04:19:04.464Z,12.80
2022-10-17T04:22:11.656Z,12.10
2022-10-17T04:25:21.462Z,13.90
2022-10-17T04:28:34.695Z,12.90
2022-10-17T04:31:42.502Z,13.50
2022-10-17T04:34:52.700Z,12.30
2022-10-17T04:38:05.547Z,14.30
2022-10-17T04:41:15.526Z,16.90
2022-10-17T04:44:22.513Z,15.10
2022-10-17T04:47:29.600Z,15.10
2022-10-17T04:50:39.555Z,17.10
2022-10-17T04:53:49.591Z,16.30
2022-10-17T04:56:59.566Z,15.50
2022-10-17T05:00:06.658Z,12.10
2022-10-17T05:03:19.531Z,16.40
2022-10-17T05:06:30.572Z,16.00
2022-10-17T05:09:37.723Z,17.70
2022-10-17T05:12:44.615Z,13.50
2022-10-17T05:15:54.646Z,15.60
2022-10-17T05:19:01.621Z,15.60
2022-10-17T05:22:08.612Z,14.20
2022-10-17T05:25:15.628Z,16.20
2022-10-17T05:28:22.697Z,14.20
2022-10-17T05:31:29.667Z,18.20
2022-10-17T05:34:39.676Z,19.10
2022-10-17T05:37:49.713Z,16.50
2022-10-17T05:40:56.797Z,15.40
2022-10-17T05:44:06.697Z,17.90
2022-10-17T05:47:13.696Z,15.00
2022-10-17T05:50:20.707Z,13.70
2022-10-17T05:53:27.709Z,12.50
2022-10-17T05:56:37.738Z,16.30
2022-10-17T05:59:44.719Z,14.00
2022-10-17T06:02:54.758Z,16.20
2022-10-17T06:06:04.825Z,17.10
2022-10-17T06:09:17.760Z,16.10
2022-10-17T06:12:27.944Z,14.90
2022-10-17T06:15:35.795Z,16.60
2022-10-17T06:18:42.862Z,14.70
2022-10-17T06:21:50.788Z,16.60
2022-10-17T06:24:57.786Z,15.40
2022-10-17T06:28:04.797Z,18.40
2022-10-17T06:31:14.791Z,17.20
2022-10-17T06:34:24.797Z,18.80
2022-10-17T06:37:36.543Z,18.00
2022-10-17T06:40:44.821Z,20.00
2022-10-17T06:43:54.890Z,18.20
2022-10-17T06:47:04.850Z,18.30
2022-10-17T06:50:11.867Z,23.10
2022-10-17T06:53:21.854Z,19.80
2022-10-17T06:56:28.900Z,18.30
2022-10-17T06:59:38.914Z,21.30
2022-10-17T07:02:45.969Z,20.60
2022-10-17T07:05:56.875Z,17.00
2022-10-17T07:09:06.935Z,20.60
2022-10-17T07:12:13.883Z,22.40
2022-10-17T07:15:20.933Z,20.20
2022-10-17T07:18:30.913Z,19.70
2022-10-17T07:21:39.205Z,18.70
2022-10-17T07:24:46.996Z,18.70
2022-10-17T07:27:54.017Z,16.40
2022-10-17T07:31:03.975Z,16.30
2022-10-17T07:34:10.933Z,22.50
2022-10-17T07:37:17.935Z,19.10
2022-10-17T07:40:25.014Z,15.80
2022-10-17T07:43:34.973Z,18.50
2022-10-17T07:46:42.015Z,22.50
2022-10-17T07:49:49.010Z,12.00
2022-10-17T07:52:59.078Z,21.40
2022-10-17T07:56:08.969Z,12.30
2022-10-17T07:59:16.019Z,15.00
2022-10-17T08:02:23.008Z,12.80
2022-10-17T08:05:30.024Z,12.70
2022-10-17T08:08:37.041Z,16.20
2022-10-17T08:11:47.073Z,15.20
2022-10-17T08:14:57.029Z,10.50
2022-10-17T08:18:07.280Z,10.60
2022-10-17T08:21:15.104Z,11.80
2022-10-17T08:24:22.091Z,11.70
2022-10-17T08:27:32.124Z,10.50
2022-10-17T08:30:39.129Z,8.10
2022-10-17T08:33:46.137Z,13.80
2022-10-17T08:36:53.285Z,10.60
2022-10-17T08:40:05.122Z,15.90
2022-10-17T08:43:12.199Z,12.60
2022-10-17T08:46:22.179Z,15.10
2022-10-17T08:49:29.099Z,12.70
2022-10-17T08:52:36.184Z,11.00
2022-10-17T08:55:45.507Z,13.60
2022-10-17T08:58:53.172Z,9.10
2022-10-17T09:02:06.138Z,17.60
2022-10-17T09:05:16.262Z,12.10
2022-10-17T09:08:26.233Z,10.90
2022-10-17T09:11:33.221Z,12.50
2022-10-17T09:14:40.212Z,12.80
2022-10-17T09:17:47.233Z,13.50
2022-10-17T09:20:57.338Z,9.70
2022-10-17T09:24:15.925Z,8.70
2022-10-17T09:27:23.216Z,13.00
2022-10-17T09:30:44.804Z,11.10
2022-10-17T09:33:56.258Z,11.70
2022-10-17T09:37:03.366Z,13.40
2022-10-17T09:40:15.329Z,18.20
2022-10-17T09:43:25.284Z,11.30
2022-10-17T09:46:37.291Z,22.20
2022-10-17T09:49:44.267Z,15.70
2022-10-17T09:53:00.306Z,29.00
2022-10-17T09:56:10.333Z,12.60
2022-10-17T09:59:20.406Z,13.80
2022-10-17T10:02:28.614Z,13.20
2022-10-17T10:05:36.372Z,13.00
2022-10-17T10:08:43.337Z,12.20
2022-10-17T10:11:50.398Z,10.50
2022-10-17T10:15:06.376Z,9.10
2022-10-17T10:18:19.377Z,10.90
2022-10-17T10:21:29.398Z,10.10
2022-10-17T10:24:36.434Z,10.60
2022-10-17T10:27:48.484Z,11.60
2022-10-17T10:30:58.408Z,16.60
2022-10-17T10:34:05.461Z,10.80
2022-10-17T10:37:17.009Z,9.90
2022-10-17T10:40:24.494Z,7.90
2022-10-17T10:43:34.442Z,20.10
2022-10-17T10:46:44.446Z,11.70
2022-10-17T10:49:51.472Z,8.90
2022-10-17T10:53:00.406Z,12.10
2022-10-17T10:56:07.497Z,9.50
2022-10-17T10:59:14.484Z,9.30
2022-10-17T11:02:21.491Z,9.30
2022-10-17T11:05:31.461Z,7.70
2022-10-17T11:08:38.473Z,8.50
2022-10-17T11:11:45.502Z,11.80
2022-10-17T11:14:52.530Z,11.90
2022-10-17T11:17:59.600Z,10.00
2022-10-17T11:21:13.585Z,10.10
2022-10-17T11:24:23.577Z,9.10
2022-10-17T11:27:34.581Z,8.20
2022-10-17T11:30:41.660Z,11.80
2022-10-17T11:33:48.504Z,8.40
2022-10-17T11:36:58.619Z,8.60
2022-10-17T11:40:09.653Z,10.40
2022-10-17T11:43:19.697Z,7.60
2022-10-17T11:46:29.664Z,9.60
2022-10-17T11:49:39.898Z,10.90
2022-10-17T11:52:57.257Z,8.80
2022-10-17T11:56:07.619Z,11.20
2022-10-17T11:59:17.595Z,8.40
2022-10-17T12:02:25.665Z,7.80
2022-10-17T12:05:49.905Z,7.90
2022-10-17T12:08:56.824Z,9.60
2022-10-17T12:12:03.755Z,7.20
2022-10-17T12:15:13.834Z,8.90
2022-10-17T12:18:20.866Z,11.30
2022-10-17T12:21:31.455Z,8.10
2022-10-17T12:24:42.835Z,8.20
2022-10-17T12:27:52.901Z,7.80
2022-10-17T12:31:02.846Z,10.20
2022-10-17T12:34:09.835Z,16.00
2022-10-17T12:37:17.882Z,11.00
2022-10-17T12:40:24.912Z,9.60
2022-10-17T12:43:31.974Z,9.40
2022-10-17T12:46:42.226Z,11.70
2022-10-17T12:49:53.129Z,7.00
2022-10-17T12:53:01.910Z,7.40
2022-10-17T12:56:11.917Z,10.80
2022-10-17T12:59:21.929Z,11.50
2022-10-17T13:02:28.932Z,9.20
2022-10-17T13:05:39.940Z,7.80
2022-10-17T13:08:54.547Z,8.10
2022-10-17T13:12:03.942Z,8.70
2022-10-17T13:15:13.965Z,8.00
2022-10-17T13:18:24.979Z,8.60
2022-10-17T13:21:36.091Z,6.50
2022-10-17T13:24:47.039Z,8.20
2022-10-17T13:27:57.002Z,10.70
2022-10-17T13:31:07.026Z,10.80
2022-10-17T13:34:17.093Z,6.90
2022-10-17T13:37:27.239Z,8.40
2022-10-17T13:40:49.098Z,7.30
2022-10-17T13:43:57.084Z,6.80
2022-10-17T13:47:06.079Z,7.90
2022-10-17T13:50:39.406Z,6.90
2022-10-17T13:53:46.181Z,8.40
2022-10-17T14:00:03.127Z,9.00
2022-10-17T14:03:14.716Z,14.10
2022-10-17T14:06:22.245Z,7.30
2022-10-17T14:09:30.089Z,11.10
2022-10-17T14:12:40.118Z,8.80
2022-10-17T14:15:47.165Z,11.10
2022-10-17T14:18:57.118Z,7.50
2022-10-17T14:22:04.110Z,9.70
2022-10-17T14:25:11.146Z,9.40
2022-10-17T14:28:18.131Z,8.50
2022-10-17T14:31:25.299Z,7.90
2022-10-17T14:34:35.175Z,10.10
2022-10-17T14:37:45.155Z,12.30
2022-10-17T14:40:52.157Z,11.30
2022-10-17T14:43:59.317Z,11.60
2022-10-17T14:47:30.786Z,12.10
2022-10-17T14:50:37.249Z,9.30
2022-10-17T14:53:44.196Z,12.80
2022-10-17T14:56:54.204Z,9.60
2022-10-17T15:00:01.264Z,8.00
2022-10-17T15:03:11.356Z,11.20
2022-10-17T15:06:19.218Z,11.10
2022-10-17T15:09:26.256Z,12.70
2022-10-17T15:12:38.291Z,10.10
2022-10-17T15:15:45.266Z,11.60
2022-10-17T15:18:52.248Z,11.00
2022-10-17T15:22:02.282Z,12.20
2022-10-17T15:25:12.368Z,12.00
2022-10-17T15:28:22.354Z,12.50
2022-10-17T15:31:32.368Z,15.60
2022-10-17T15:34:42.289Z,12.40
2022-10-17T15:37:49.338Z,12.80
2022-10-17T15:41:02.365Z,14.10
2022-10-17T15:44:12.410Z,15.10
2022-10-17T15:47:26.510Z,16.60
2022-10-17T15:50:34.328Z,12.50
2022-10-17T15:53:44.393Z,15.20
2022-10-17T15:56:54.352Z,19.80
2022-10-17T16:00:01.426Z,15.70
2022-10-17T16:03:12.348Z,18.80
2022-10-17T16:06:19.396Z,22.90
2022-10-17T16:09:26.391Z,16.60
2022-10-17T16:12:36.446Z,19.70
2022-10-17T16:15:46.461Z,19.60
2022-10-17T16:18:56.446Z,20.00
2022-10-17T16:22:04.732Z,22.20
2022-10-17T16:25:15.410Z,25.00
2022-10-17T16:28:22.491Z,21.10
2022-10-17T16:31:32.464Z,24.20
2022-10-17T16:34:39.484Z,20.70
2022-10-17T16:37:49.412Z,26.20
2022-10-17T16:40:56.484Z,23.20
2022-10-17T16:44:03.492Z,26.50
2022-10-17T16:47:10.517Z,22.80
2022-10-17T16:50:20.492Z,21.30
2022-10-17T16:53:27.499Z,21.40
2022-10-17T17:00:10.508Z,29.20
2022-10-17T17:03:20.554Z,26.30
2022-10-17T17:06:31.579Z,33.80
2022-10-17T17:13:38.559Z,31.50
2022-10-17T17:16:48.525Z,32.60
2022-10-17T17:19:58.535Z,33.80
2022-10-17T17:23:09.889Z,33.10
2022-10-17T17:26:18.579Z,34.80
2022-10-17T17:29:28.536Z,36.10
2022-10-17T17:32:35.727Z,36.40
2022-10-17T17:35:43.589Z,37.50
2022-10-17T17:38:53.566Z,39.20
2022-10-17T17:42:00.598Z,41.40
2022-10-17T17:45:07.544Z,35.40
2022-10-17T17:48:14.613Z,33.90
2022-10-17T17:51:25.581Z,36.80
2022-10-17T17:54:40.011Z,39.20
2022-10-17T17:57:51.585Z,46.10
2022-10-17T18:00:58.710Z,47.70
2022-10-17T18:04:08.859Z,45.70
2022-10-17T18:07:16.614Z,48.40
2022-10-17T18:10:23.659Z,45.60
2022-10-17T18:13:30.692Z,44.20
2022-10-17T18:16:37.676Z,46.80
2022-10-17T18:19:44.661Z,44.40
2022-10-17T18:22:51.780Z,42.30
2022-10-17T18:26:02.011Z,44.40
2022-10-17T18:29:09.698Z,44.30
2022-10-17T18:32:16.705Z,41.20
2022-10-17T18:35:23.717Z,41.50
2022-10-17T18:38:30.847Z,43.30
2022-10-17T18:41:38.729Z,41.90
2022-10-17T18:44:45.769Z,39.00
2022-10-17T18:47:52.789Z,44.90
2022-10-17T18:50:59.727Z,42.70
2022-10-17T18:54:06.787Z,38.30
2022-10-17T18:57:13.798Z,43.70
2022-10-17T19:00:20.755Z,41.70
2022-10-17T19:03:30.734Z,43.10
2022-10-17T19:06:37.968Z,39.70
2022-10-17T19:09:47.884Z,40.20
2022-10-17T19:12:57.829Z,44.90
2022-10-17T19:16:13.823Z,44.10
2022-10-17T19:19:23.898Z,42.30
2022-10-17T19:22:30.872Z,42.20
2022-10-17T19:25:40.840Z,41.90
2022-10-17T19:28:50.934Z,38.60
2022-10-17T19:32:00.857Z,38.40
2022-10-17T19:35:10.888Z,33.20
2022-10-17T19:38:17.887Z,36.10
2022-10-17T19:41:24.958Z,34.40
2022-10-17T19:44:34.940Z,33.10
2022-10-17T19:47:44.928Z,31.50
2022-10-17T19:50:51.885Z,32.70
2022-10-17T19:53:58.930Z,33.10
2022-10-17T19:57:09.546Z,34.30
2022-10-17T20:00:17.919Z,32.00
2022-10-17T20:03:27.932Z,34.00
2022-10-17T20:06:37.967Z,32.80
2022-10-17T20:09:44.971Z,30.40
2022-10-17T20:12:54.995Z,32.70
2022-10-17T20:16:01.984Z,29.90
2022-10-17T20:19:09.422Z,32.10
2022-10-17T20:22:16.963Z,36.20
2022-10-17T20:25:24.018Z,30.90
2022-10-17T20:28:31.091Z,29.00
2022-10-17T20:31:41.030Z,26.60
2022-10-17T20:34:51.133Z,32.60
2022-10-17T20:38:01.032Z,28.70
2022-10-17T20:41:08.030Z,27.70
2022-10-17T20:44:15.062Z,30.50
2022-10-17T20:47:40.526Z,30.60
2022-10-17T20:50:52.011Z,28.50
2022-10-17T20:53:59.079Z,27.30
2022-10-17T20:57:06.116Z,29.90
2022-10-17T21:00:13.087Z,30.80
2022-10-17T21:03:20.252Z,24.20
2022-10-17T21:06:30.139Z,27.10
2022-10-17T21:09:37.101Z,26.60
2022-10-17T21:12:54.037Z,26.40
2022-10-17T21:16:02.107Z,26.00
2022-10-17T21:19:12.200Z,27.50
2022-10-17T21:22:19.127Z,25.90
2022-10-17T21:25:26.212Z,26.70
2022-10-17T21:28:36.193Z,26.50
2022-10-17T21:31:43.172Z,25.00
2022-10-17T21:34:50.152Z,25.40
2022-10-17T21:38:00.129Z,24.40
2022-10-17T21:41:07.101Z,25.60
2022-10-17T21:44:14.228Z,27.70
2022-10-17T21:47:23.218Z,26.30
2022-10-17T21:50:33.216Z,23.50
2022-10-17T21:53:43.205Z,22.50
2022-10-17T21:56:50.368Z,25.30
2022-10-17T22:00:00.210Z,23.60
2022-10-17T22:03:07.194Z,26.10
2022-10-17T22:09:44.265Z,24.80
2022-10-17T22:12:51.341Z,22.60
2022-10-17T22:16:01.274Z,25.30
2022-10-17T22:19:11.261Z,21.60
2022-10-17T22:22:21.290Z,24.50
2022-10-17T22:25:31.309Z,21.30
2022-10-17T22:28:38.355Z,20.90
2022-10-17T22:31:48.263Z,21.80
2022-10-17T22:34:55.303Z,22.50
2022-10-17T22:38:02.376Z,20.40
2022-10-17T22:41:09.398Z,22.90
2022-10-17T22:44:19.339Z,19.80
2022-10-17T22:47:29.574Z,20.40
2022-10-17T22:50:37.324Z,21.10
2022-10-17T22:53:44.310Z,21.90
2022-10-17T22:56:51.383Z,19.30
2022-10-17T22:59:58.387Z,17.10
2022-10-17T23:03:05.332Z,20.20
2022-10-17T23:06:12.389Z,17.50
2022-10-17T23:09:20.440Z,17.80
2022-10-17T23:12:27.536Z,17.90
2022-10-17T23:15:38.510Z,17.70
2022-10-17T23:18:51.432Z,18.80
2022-10-17T23:22:01.432Z,21.20
2022-10-17T23:25:08.436Z,16.90
2022-10-17T23:28:15.612Z,16.70
2022-10-17T23:31:22.457Z,17.40
2022-10-17T23:34:29.466Z,18.70
2022-10-17T23:37:36.419Z,16.20
2022-10-17T23:40:43.487Z,18.00
2022-10-17T23:43:54.555Z,16.30
2022-10-17T23:47:04.505Z,19.20
2022-10-17T23:50:14.696Z,17.40
2022-10-17T23:53:22.498Z,19.10
2022-10-17T23:56:32.525Z,17.50
2022-10-17T23:59:39.563Z,18.50
